Time;durP1;ratioP1;P1;durP2;ratioP2;P2;SDS_P1;SDS_P2;PMS_P1;PMS_P2;Temp;Humidity;BMP_temperature;BMP_pressure;BME280_temperature;BME280_humidity;BME280_pressure;Samples;Min_cycle;Max_cycle;Signal;HPM_P1;HPM_P2
2022/11/26 00:00:49;;;;;;;116.50;45.00;;;2.40;99.90;;;;;;4430722;28;658614;-64
2022/11/26 00:03:36;;;;;;;111.10;44.73;;;2.40;99.90;;;;;;4411417;28;658491;-65
2022/11/26 00:06:28;;;;;;;117.90;46.80;;;2.40;99.90;;;;;;4430516;28;659502;-64
2022/11/26 00:09:18;;;;;;;121.20;46.43;;;2.40;99.90;;;;;;4388489;28;658553;-65
2022/11/26 00:12:15;;;;;;;124.37;47.60;;;2.40;99.90;;;;;;4414104;28;658880;-65
2022/11/26 00:15:02;;;;;;;119.33;46.20;;;2.40;99.90;;;;;;4388100;28;660472;-64
2022/11/26 00:17:50;;;;;;;113.07;44.33;;;2.40;99.90;;;;;;4433886;28;659280;-64
2022/11/26 00:20:37;;;;;;;125.30;47.77;;;2.50;99.90;;;;;;4410916;28;660024;-64
2022/11/26 00:23:26;;;;;;;111.93;44.83;;;2.50;99.90;;;;;;4434263;28;659534;-64
2022/11/26 00:26:14;;;;;;;120.07;46.87;;;2.50;99.90;;;;;;4410989;28;659769;-64
2022/11/26 00:29:01;;;;;;;109.90;43.60;;;2.40;99.90;;;;;;4414570;28;659181;-64
2022/11/26 00:31:49;;;;;;;107.63;42.67;;;2.40;99.90;;;;;;4433711;28;659352;-64
2022/11/26 00:34:36;;;;;;;108.13;42.83;;;2.40;99.90;;;;;;4404099;28;658722;-65
2022/11/26 00:37:24;;;;;;;101.40;42.67;;;2.40;99.90;;;;;;4436522;28;660019;-64
2022/11/26 00:40:18;;;;;;;103.57;40.07;;;2.40;99.90;;;;;;4414897;28;658734;-65
2022/11/26 00:43:06;;;;;;;96.47;40.90;;;2.50;99.90;;;;;;4396640;28;658934;-66
2022/11/26 00:45:53;;;;;;;102.37;37.13;;;2.50;99.90;;;;;;4434623;28;658923;-64
2022/11/26 00:48:40;;;;;;;97.17;37.57;;;2.50;99.90;;;;;;4414028;28;658773;-65
2022/11/26 00:51:28;;;;;;;103.37;37.77;;;2.50;99.90;;;;;;4438351;28;658989;-64
2022/11/26 00:54:16;;;;;;;86.57;36.57;;;2.50;99.90;;;;;;4427890;28;658916;-66
2022/11/26 00:57:05;;;;;;;103.83;38.37;;;2.50;99.90;;;;;;4434150;28;658584;-64
2022/11/26 00:59:52;;;;;;;91.83;37.67;;;2.60;99.90;;;;;;4410165;28;660196;-64
2022/11/26 01:02:39;;;;;;;293.27;41.13;;;2.60;99.90;;;;;;4433718;28;657831;-64
2022/11/26 01:05:29;;;;;;;93.43;37.37;;;2.60;99.90;;;;;;4414228;28;659272;-64
2022/11/26 01:08:20;;;;;;;96.80;41.10;;;2.50;99.90;;;;;;4415393;28;657818;-64
2022/11/26 01:11:07;;;;;;;118.50;39.87;;;2.60;99.90;;;;;;4415470;28;659143;-65
2022/11/26 01:13:55;;;;;;;100.95;41.65;;;2.70;99.90;;;;;;4432842;28;659169;-64
2022/11/26 01:16:43;;;;;;;96.63;41.00;;;2.70;99.90;;;;;;4410073;28;658974;-65
2022/11/26 01:19:30;;;;;;;90.67;38.60;;;2.70;99.90;;;;;;4423716;28;657648;-65
2022/11/26 01:22:19;;;;;;;103.90;43.00;;;2.80;99.90;;;;;;4432789;28;658243;-64
2022/11/26 01:25:07;;;;;;;117.73;42.63;;;2.90;99.90;;;;;;4409774;28;659732;-64
2022/11/26 01:27:54;;;;;;;104.77;45.40;;;3.10;99.90;;;;;;4432833;28;658588;-64
2022/11/26 01:30:43;;;;;;;95.80;40.00;;;3.10;99.90;;;;;;4410130;28;659233;-64
2022/11/26 01:33:30;;;;;;;120.27;49.47;;;3.10;99.90;;;;;;4426024;28;657875;-66
2022/11/26 01:36:23;;;;;;;128.63;53.83;;;3.30;99.90;;;;;;4436432;28;659170;-64
2022/11/26 01:39:13;;;;;;;124.97;52.73;;;3.40;99.90;;;;;;4390597;28;659739;-65
2022/11/26 01:42:05;;;;;;;140.97;56.73;;;3.50;99.90;;;;;;4412465;28;658907;-65
2022/11/26 01:44:52;;;;;;;136.60;58.17;;;3.60;99.90;;;;;;4409004;28;660008;-64
2022/11/26 01:47:41;;;;;;;148.07;59.77;;;3.60;99.90;;;;;;4429878;28;658838;-64
2022/11/26 01:50:48;;;;;;;143.77;59.07;;;3.70;99.90;;;;;;4408688;28;659752;-65
2022/11/26 01:53:43;;;;;;;141.77;56.53;;;3.70;99.90;;;;;;4400077;28;658557;-66
2022/11/26 01:56:32;;;;;;;125.17;55.33;;;3.70;99.90;;;;;;4387354;28;659481;-65
2022/11/26 01:59:21;;;;;;;134.80;54.90;;;3.70;99.90;;;;;;4416118;28;659419;-64
2022/11/26 02:02:08;;;;;;;131.87;54.17;;;3.70;99.90;;;;;;4407112;28;659165;-64
2022/11/26 02:05:00;;;;;;;146.77;56.57;;;3.70;99.90;;;;;;4413045;28;659195;-65
2022/11/26 02:07:47;;;;;;;136.63;55.03;;;3.70;99.90;;;;;;4410587;28;659334;-64
2022/11/26 02:10:34;;;;;;;125.63;51.30;;;3.70;99.90;;;;;;4431827;28;658645;-64
2022/11/26 02:13:21;;;;;;;131.97;55.90;;;3.70;99.90;;;;;;4413199;28;658605;-65
2022/11/26 02:16:11;;;;;;;129.87;50.27;;;3.60;99.90;;;;;;4431885;28;658728;-64
2022/11/26 02:19:05;;;;;;;129.60;52.23;;;3.70;99.90;;;;;;4408621;28;659150;-64
2022/11/26 02:21:56;;;;;;;116.45;47.72;;;3.70;99.90;;;;;;4386094;28;659540;-64
2022/11/26 02:24:48;;;;;;;146.47;52.93;;;3.70;99.90;;;;;;4408889;28;659714;-64
2022/11/26 02:27:58;;;;;;;132.90;53.53;;;3.60;99.90;;;;;;4412820;28;658675;-66
2022/11/26 02:30:48;;;;;;;130.37;53.10;;;3.50;99.90;;;;;;4390502;28;659922;-66
2022/11/26 02:33:38;;;;;;;127.23;50.10;;;3.50;99.90;;;;;;4413606;28;658371;-66
2022/11/26 02:36:28;;;;;;;126.05;51.20;;;3.50;99.90;;;;;;4412979;28;658578;-66
2022/11/26 02:39:16;;;;;;;130.17;49.77;;;3.50;99.90;;;;;;4424791;28;658880;-66
2022/11/26 02:42:03;;;;;;;120.90;49.73;;;3.40;99.90;;;;;;4431356;28;659430;-64
2022/11/26 02:44:50;;;;;;;133.50;51.50;;;3.40;99.90;;;;;;4412547;28;658690;-65
2022/11/26 02:47:40;;;;;;;131.37;52.67;;;3.50;99.90;;;;;;4430811;28;660084;-64
2022/11/26 02:50:29;;;;;;;135.33;52.10;;;3.40;99.90;;;;;;4408459;28;660661;-64
2022/11/26 02:53:17;;;;;;;126.77;51.00;;;3.50;99.90;;;;;;4412423;28;658985;-65
2022/11/26 02:56:06;;;;;;;125.03;49.80;;;3.50;99.90;;;;;;4427844;28;658591;-64
2022/11/26 02:58:54;;;;;;;125.10;48.97;;;3.50;99.90;;;;;;4394737;28;659820;-65
2022/11/26 03:01:43;;;;;;;137.97;51.40;;;3.40;99.90;;;;;;4753482;28;658525;-64
2022/11/26 03:04:33;;;;;;;125.57;49.00;;;3.40;99.90;;;;;;4505444;28;535106;-66
2022/11/26 03:07:20;;;;;;;144.63;50.40;;;3.40;99.90;;;;;;4394731;28;658545;-66
2022/11/26 03:10:08;;;;;;;129.80;49.43;;;3.40;99.90;;;;;;4417460;28;658372;-65
2022/11/26 03:12:55;;;;;;;129.73;50.07;;;3.40;99.90;;;;;;4394240;28;658913;-66
2022/11/26 03:15:42;;;;;;;140.00;50.38;;;3.40;99.90;;;;;;4417427;28;659290;-64
2022/11/26 03:18:29;;;;;;;124.13;48.10;;;3.50;99.90;;;;;;4413339;28;658422;-64
2022/11/26 03:21:18;;;;;;;131.30;50.70;;;3.40;99.90;;;;;;4390810;28;658830;-65
2022/11/26 03:24:06;;;;;;;136.40;51.43;;;3.40;99.90;;;;;;4404698;28;658529;-66
2022/11/26 03:26:53;;;;;;;131.77;50.90;;;3.40;99.90;;;;;;4413146;28;659533;-65
2022/11/26 03:29:40;;;;;;;156.23;55.27;;;3.40;99.90;;;;;;4404150;28;658550;-66
2022/11/26 03:32:27;;;;;;;173.23;56.40;;;3.30;99.90;;;;;;4417473;28;659391;-65
2022/11/26 03:35:14;;;;;;;151.60;56.27;;;3.30;99.90;;;;;;4413329;28;658595;-65
2022/11/26 03:38:03;;;;;;;158.23;55.70;;;3.30;99.90;;;;;;4394208;28;658681;-65
2022/11/26 03:40:56;;;;;;;166.23;58.22;;;3.20;99.90;;;;;;4397698;28;658831;-66
2022/11/26 03:43:43;;;;;;;173.00;57.60;;;3.20;99.90;;;;;;4387881;28;659545;-65
2022/11/26 03:46:30;;;;;;;179.38;58.47;;;3.20;99.90;;;;;;4396439;28;659509;-66
2022/11/26 03:49:17;;;;;;;169.70;58.57;;;3.20;99.90;;;;;;4416282;28;659212;-64
2022/11/26 03:52:04;;;;;;;186.60;59.03;;;3.30;99.90;;;;;;4410881;28;658577;-65
2022/11/26 03:54:53;;;;;;;179.07;58.43;;;3.20;99.90;;;;;;4393393;28;659449;-65
2022/11/26 03:57:40;;;;;;;209.37;59.17;;;3.20;99.90;;;;;;4398502;28;658639;-66
2022/11/26 04:00:27;;;;;;;498.63;59.13;;;3.20;99.90;;;;;;4434295;28;658344;-65
2022/11/26 04:03:14;;;;;;;301.93;51.33;;;3.10;99.90;;;;;;4430147;28;659430;-65
2022/11/26 04:06:01;;;;;;;544.17;63.20;;;3.00;99.90;;;;;;4406941;28;660475;-65
2022/11/26 04:08:48;;;;;;;460.30;54.20;;;3.10;99.90;;;;;;4430336;28;659694;-65
2022/11/26 04:11:37;;;;;;;726.87;64.57;;;3.00;99.90;;;;;;4410130;28;659000;-65
2022/11/26 04:14:24;;;;;;;406.13;55.07;;;3.10;99.90;;;;;;4429963;28;658690;-65
2022/11/26 04:17:11;;;;;;;845.30;67.43;;;3.00;99.90;;;;;;4411481;28;658783;-65
2022/11/26 04:19:58;;;;;;;625.90;56.20;;;3.00;99.90;;;;;;4429597;28;658904;-65
2022/11/26 04:22:46;;;;;;;588.83;55.73;;;3.00;99.90;;;;;;4411158;28;658737;-65
2022/11/26 04:25:33;;;;;;;578.60;51.03;;;3.10;99.90;;;;;;4429980;28;659530;-65
2022/11/26 04:28:21;;;;;;;517.30;52.27;;;3.00;99.90;;;;;;4422017;28;658427;-65
2022/11/26 04:31:08;;;;;;;591.67;54.00;;;3.00;99.90;;;;;;4430098;28;658747;-65
2022/11/26 04:33:56;;;;;;;393.70;45.33;;;3.00;99.90;;;;;;4399515;28;658598;-65
2022/11/26 04:36:43;;;;;;;391.40;46.07;;;3.00;99.90;;;;;;4421047;28;659441;-64
2022/11/26 04:39:30;;;;;;;361.03;43.63;;;3.00;99.90;;;;;;4421233;28;658539;-66
2022/11/26 04:42:17;;;;;;;479.23;46.80;;;3.00;99.90;;;;;;4433707;28;659216;-65
2022/11/26 04:45:07;;;;;;;195.00;40.27;;;3.00;99.90;;;;;;4429634;28;658697;-65
2022/11/26 04:47:54;;;;;;;211.37;41.13;;;3.00;99.90;;;;;;4406877;28;659028;-65
2022/11/26 04:50:41;;;;;;;264.47;42.70;;;3.00;99.90;;;;;;4411104;28;658821;-66
2022/11/26 04:53:28;;;;;;;249.27;41.60;;;2.90;99.90;;;;;;4429866;28;659282;-65
2022/11/26 04:56:15;;;;;;;304.25;41.83;;;3.00;99.90;;;;;;4411080;28;658706;-66
2022/11/26 04:59:02;;;;;;;303.27;44.67;;;2.90;99.90;;;;;;4436990;28;658709;-65
2022/11/26 05:01:51;;;;;;;358.10;46.70;;;3.00;99.90;;;;;;4433275;28;658387;-66
2022/11/26 05:04:38;;;;;;;209.37;41.90;;;2.90;99.90;;;;;;4433197;28;659264;-65
2022/11/26 05:07:25;;;;;;;194.57;40.10;;;2.90;99.90;;;;;;4414265;28;658909;-65
2022/11/26 05:10:13;;;;;;;216.47;40.83;;;2.90;99.90;;;;;;4432735;28;658871;-65
2022/11/26 05:13:00;;;;;;;288.53;44.40;;;2.90;99.90;;;;;;4416785;28;659371;-67
2022/11/26 05:15:47;;;;;;;367.40;43.78;;;2.90;99.90;;;;;;4436683;28;658229;-65
2022/11/26 05:18:36;;;;;;;417.00;43.13;;;2.90;99.90;;;;;;4432920;28;659134;-65
2022/11/26 05:21:23;;;;;;;464.87;44.67;;;2.90;99.90;;;;;;4409799;28;659441;-65
2022/11/26 05:24:10;;;;;;;259.10;40.80;;;2.90;99.90;;;;;;4421381;28;659193;-66
2022/11/26 05:26:57;;;;;;;335.23;42.00;;;2.90;99.90;;;;;;4436292;28;659071;-65
2022/11/26 05:29:44;;;;;;;186.13;39.37;;;2.90;99.90;;;;;;4432629;28;658794;-65
2022/11/26 05:32:31;;;;;;;241.53;39.30;;;3.10;99.90;;;;;;4413427;28;658998;-65
2022/11/26 05:35:20;;;;;;;283.87;36.80;;;3.00;99.90;;;;;;4421277;28;659785;-65
2022/11/26 05:38:07;;;;;;;526.57;44.77;;;3.00;99.90;;;;;;4409314;28;658837;-65
2022/11/26 05:40:54;;;;;;;464.10;43.33;;;3.00;99.90;;;;;;4432210;28;658825;-65
2022/11/26 05:43:41;;;;;;;637.30;46.00;;;3.10;99.90;;;;;;4412734;28;658765;-65
2022/11/26 05:46:28;;;;;;;537.15;44.65;;;3.10;99.90;;;;;;4431353;28;659597;-65
2022/11/26 05:49:15;;;;;;;692.50;45.43;;;3.00;99.90;;;;;;4412512;28;658847;-66
2022/11/26 05:52:04;;;;;;;744.80;49.30;;;3.00;99.90;;;;;;4434865;28;658613;-65
2022/11/26 05:54:51;;;;;;;798.30;49.13;;;3.00;99.90;;;;;;4412254;28;658584;-66
2022/11/26 05:57:38;;;;;;;540.93;42.80;;;2.90;99.90;;;;;;4431491;28;659450;-65
2022/11/26 06:00:25;;;;;;;645.77;47.77;;;3.00;99.90;;;;;;4413338;28;658448;-66
2022/11/26 06:03:12;;;;;;;475.10;42.63;;;3.00;99.90;;;;;;4436376;28;659108;-65
2022/11/26 06:05:59;;;;;;;559.93;45.23;;;2.90;99.90;;;;;;4431957;28;658630;-65
2022/11/26 06:08:48;;;;;;;628.10;45.30;;;3.00;99.90;;;;;;4412551;28;658430;-65
2022/11/26 06:11:35;;;;;;;619.33;45.50;;;3.00;99.90;;;;;;4417530;28;658866;-66
2022/11/26 06:14:22;;;;;;;750.13;48.40;;;3.00;99.90;;;;;;4435977;28;658894;-65
2022/11/26 06:17:09;;;;;;;404.73;42.70;;;2.90;99.90;;;;;;4431651;28;658566;-65
2022/11/26 06:19:56;;;;;;;532.07;44.37;;;2.90;99.90;;;;;;4412573;28;658910;-64
2022/11/26 06:22:43;;;;;;;534.03;44.63;;;3.00;99.90;;;;;;4431882;28;659938;-65
2022/11/26 06:25:32;;;;;;;528.53;46.13;;;3.10;99.90;;;;;;4412719;28;658583;-65
2022/11/26 06:28:19;;;;;;;230.43;40.07;;;3.10;99.90;;;;;;4431683;28;658727;-65
2022/11/26 06:31:07;;;;;;;876.80;55.65;;;3.10;99.90;;;;;;4412732;28;659229;-65
2022/11/26 06:33:55;;;;;;;323.17;44.40;;;3.10;99.90;;;;;;4416450;28;658409;-66
2022/11/26 06:36:42;;;;;;;393.05;49.28;;;3.20;99.90;;;;;;4422748;28;658123;-64
2022/11/26 06:39:29;;;;;;;338.00;51.80;;;3.20;99.90;;;;;;4431058;28;658967;-65
2022/11/26 06:42:18;;;;;;;263.43;52.37;;;3.20;99.90;;;;;;4412525;28;658681;-65
2022/11/26 06:45:06;;;;;;;214.73;51.00;;;3.20;99.90;;;;;;4416602;28;658788;-65
2022/11/26 06:47:53;;;;;;;170.00;51.20;;;3.30;99.90;;;;;;4432439;28;659233;-65
2022/11/26 06:50:40;;;;;;;162.47;47.23;;;3.30;99.90;;;;;;4416904;28;658957;-66
2022/11/26 06:53:27;;;;;;;146.32;41.92;;;3.40;99.90;;;;;;4434998;28;659259;-65
2022/11/26 06:56:15;;;;;;;151.37;42.47;;;3.40;99.90;;;;;;4431446;28;658746;-64
2022/11/26 06:59:03;;;;;;;122.60;41.17;;;3.40;99.90;;;;;;4397992;28;660094;-65
2022/11/26 07:01:50;;;;;;;114.80;40.40;;;3.40;99.90;;;;;;4790447;28;658215;-64
2022/11/26 07:04:37;;;;;;;121.30;39.93;;;3.50;99.90;;;;;;4484532;28;557682;-65
2022/11/26 07:07:25;;;;;;;125.53;40.77;;;3.60;99.90;;;;;;4408832;28;658538;-66
2022/11/26 07:10:12;;;;;;;105.63;38.00;;;3.60;99.90;;;;;;4417654;28;658371;-65
2022/11/26 07:13:00;;;;;;;111.10;37.67;;;3.70;99.90;;;;;;4413430;28;659646;-65
2022/11/26 07:15:48;;;;;;;145.00;41.30;;;3.70;99.90;;;;;;4390140;28;660018;-65
2022/11/26 07:18:35;;;;;;;110.27;38.20;;;3.70;99.90;;;;;;4394596;28;659578;-65
2022/11/26 07:21:22;;;;;;;116.10;39.13;;;3.60;99.90;;;;;;4412675;28;660292;-65
2022/11/26 07:24:10;;;;;;;120.03;40.67;;;3.70;99.90;;;;;;4411799;28;658216;-66
2022/11/26 07:26:57;;;;;;;113.63;38.73;;;3.70;99.90;;;;;;4417290;28;658909;-64
2022/11/26 07:29:44;;;;;;;132.40;39.60;;;3.60;99.90;;;;;;4413269;28;658861;-65
2022/11/26 07:32:33;;;;;;;122.53;40.83;;;3.70;99.90;;;;;;4392189;28;659248;-65
2022/11/26 07:35:20;;;;;;;125.80;39.77;;;3.70;99.90;;;;;;4392548;28;658659;-66
2022/11/26 07:38:07;;;;;;;127.27;40.33;;;3.80;99.90;;;;;;4417425;28;659248;-65
2022/11/26 07:40:54;;;;;;;137.93;42.63;;;3.70;99.90;;;;;;4412539;28;658826;-64
2022/11/26 07:43:42;;;;;;;145.07;43.13;;;3.60;99.90;;;;;;4390138;28;658826;-65
2022/11/26 07:46:29;;;;;;;113.53;37.40;;;3.60;99.90;;;;;;4409983;28;659175;-64
2022/11/26 07:49:17;;;;;;;163.45;46.03;;;3.60;99.90;;;;;;4389586;28;658957;-65
2022/11/26 07:52:04;;;;;;;166.10;46.50;;;3.50;99.90;;;;;;4412280;28;658938;-64
2022/11/26 07:54:51;;;;;;;199.23;49.23;;;3.40;99.90;;;;;;4393153;28;659033;-64
2022/11/26 07:57:38;;;;;;;166.13;47.97;;;3.50;99.90;;;;;;4415931;28;659581;-64
2022/11/26 08:00:26;;;;;;;200.07;51.63;;;3.40;99.90;;;;;;4411495;28;658686;-65
2022/11/26 08:03:13;;;;;;;193.63;52.97;;;3.50;99.90;;;;;;4434152;28;659571;-65
2022/11/26 08:06:04;;;;;;;202.97;50.90;;;3.50;99.90;;;;;;4419699;28;658863;-66
2022/11/26 08:08:51;;;;;;;191.27;49.93;;;3.50;99.90;;;;;;4411262;28;658685;-64
2022/11/26 08:11:39;;;;;;;187.97;50.50;;;3.70;99.90;;;;;;4429798;28;658702;-64
2022/11/26 08:14:26;;;;;;;166.87;45.83;;;3.70;99.90;;;;;;4411039;28;658675;-64
2022/11/26 08:17:13;;;;;;;163.47;50.53;;;3.80;99.90;;;;;;4434350;28;660296;-65
2022/11/26 08:20:00;;;;;;;152.43;46.37;;;3.70;99.90;;;;;;4418283;28;658948;-66
2022/11/26 08:22:49;;;;;;;162.82;48.45;;;3.80;99.90;;;;;;4434176;28;659655;-65
2022/11/26 08:25:36;;;;;;;175.93;50.20;;;3.80;99.90;;;;;;4411152;28;658496;-65
2022/11/26 08:28:23;;;;;;;193.77;49.47;;;3.90;99.90;;;;;;4434564;28;660489;-64
2022/11/26 08:31:11;;;;;;;172.85;49.22;;;3.70;99.90;;;;;;4414588;28;658690;-65
2022/11/26 08:33:58;;;;;;;169.50;50.50;;;3.70;99.90;;;;;;4421670;28;659762;-64
2022/11/26 08:36:45;;;;;;;201.60;53.17;;;3.70;99.90;;;;;;4405840;28;658414;-65
2022/11/26 08:39:34;;;;;;;158.40;51.07;;;3.70;99.90;;;;;;4433779;28;659555;-64
2022/11/26 08:42:21;;;;;;;154.43;46.83;;;3.70;99.90;;;;;;4413623;28;658633;-64
2022/11/26 08:45:08;;;;;;;179.73;51.92;;;3.70;99.90;;;;;;4434787;28;659812;-64
2022/11/26 08:47:55;;;;;;;174.00;51.77;;;3.60;99.90;;;;;;4414566;28;658737;-65
2022/11/26 08:50:42;;;;;;;166.70;51.53;;;3.70;99.90;;;;;;4432791;28;659925;-64
2022/11/26 08:53:30;;;;;;;183.20;53.60;;;3.80;99.90;;;;;;4428967;28;658770;-66
2022/11/26 08:56:19;;;;;;;196.13;55.47;;;4.00;99.90;;;;;;4433531;28;660169;-65
2022/11/26 08:59:06;;;;;;;173.10;52.73;;;4.10;99.90;;;;;;4414387;28;659770;-65
2022/11/26 09:01:53;;;;;;;181.32;55.47;;;4.00;99.90;;;;;;4831126;28;660086;-64
2022/11/26 09:04:41;;;;;;;192.27;54.80;;;4.10;99.90;;;;;;4483259;28;657779;-65
2022/11/26 09:07:28;;;;;;;173.17;53.87;;;3.90;99.90;;;;;;4432739;28;659911;-64
2022/11/26 09:10:15;;;;;;;173.80;55.97;;;3.90;99.90;;;;;;4414105;28;658933;-64
2022/11/26 09:13:04;;;;;;;182.07;54.93;;;4.00;99.90;;;;;;4432538;28;660393;-64
2022/11/26 09:15:51;;;;;;;173.07;53.10;;;4.00;99.90;;;;;;4414116;28;658837;-64
2022/11/26 09:18:38;;;;;;;170.20;54.13;;;4.10;99.90;;;;;;4433037;28;659272;-64
2022/11/26 09:21:25;;;;;;;191.37;58.73;;;4.10;99.90;;;;;;4413613;28;658876;-65
2022/11/26 09:24:12;;;;;;;182.18;58.60;;;4.00;99.90;;;;;;4437119;28;658238;-64
2022/11/26 09:26:59;;;;;;;187.20;58.83;;;3.90;99.90;;;;;;4432847;28;658690;-64
2022/11/26 09:29:48;;;;;;;178.33;58.77;;;3.80;99.90;;;;;;4414064;28;658886;-64
2022/11/26 09:32:36;;;;;;;180.57;57.10;;;3.80;99.90;;;;;;4420510;28;658600;-66
2022/11/26 09:35:24;;;;;;;179.00;56.70;;;3.90;99.90;;;;;;4423767;28;659137;-64
2022/11/26 09:38:11;;;;;;;192.60;60.07;;;3.90;99.90;;;;;;4413336;28;658510;-64
2022/11/26 09:41:01;;;;;;;165.73;57.23;;;3.90;99.90;;;;;;4435384;28;660166;-64
2022/11/26 09:44:05;;;;;;;137.20;46.33;;;4.00;99.90;;;;;;4407849;28;659571;-64
2022/11/26 09:47:01;;;;;;;153.70;52.33;;;4.00;99.90;;;;;;4385190;28;659888;-64
2022/11/26 09:49:57;;;;;;;151.90;52.97;;;3.90;99.90;;;;;;4408864;28;659191;-64
2022/11/26 09:52:47;;;;;;;163.90;52.67;;;3.80;99.90;;;;;;4408707;28;658903;-64
2022/11/26 09:55:35;;;;;;;168.17;55.60;;;3.90;99.90;;;;;;4408231;28;658434;-64
2022/11/26 09:58:23;;;;;;;209.90;62.13;;;3.90;99.90;;;;;;4408663;28;659759;-64
2022/11/26 10:01:13;;;;;;;207.07;63.77;;;3.90;99.90;;;;;;4412986;28;659137;-64
2022/11/26 10:04:01;;;;;;;183.90;57.00;;;3.90;99.90;;;;;;4413060;28;658944;-65
2022/11/26 10:06:51;;;;;;;188.93;58.40;;;3.90;99.90;;;;;;4432040;28;658616;-64
2022/11/26 10:09:45;;;;;;;191.27;59.30;;;3.90;99.90;;;;;;4409219;28;659313;-64
2022/11/26 10:12:39;;;;;;;193.07;59.03;;;3.90;99.90;;;;;;4383068;28;659501;-64
2022/11/26 10:15:28;;;;;;;199.77;59.43;;;3.90;99.90;;;;;;4412840;28;659084;-64
2022/11/26 10:18:18;;;;;;;176.73;56.50;;;4.00;99.90;;;;;;4412829;28;658792;-65
2022/11/26 10:21:12;;;;;;;189.80;58.53;;;4.00;99.90;;;;;;4417268;28;659338;-65
2022/11/26 10:24:02;;;;;;;169.53;54.00;;;4.00;99.90;;;;;;4408963;28;659645;-64
2022/11/26 10:26:49;;;;;;;169.37;52.77;;;4.10;99.90;;;;;;4408799;28;658824;-64
2022/11/26 10:29:38;;;;;;;162.10;49.57;;;4.10;99.90;;;;;;4408897;28;658683;-65
2022/11/26 10:32:26;;;;;;;180.23;49.83;;;4.00;99.90;;;;;;4412832;28;658737;-65
2022/11/26 10:35:15;;;;;;;152.37;47.63;;;4.10;99.90;;;;;;4409748;28;659328;-64
2022/11/26 10:38:03;;;;;;;152.33;47.60;;;4.10;99.90;;;;;;4406395;28;659918;-65
2022/11/26 10:40:50;;;;;;;161.00;49.00;;;4.10;99.90;;;;;;4412441;28;658540;-65
2022/11/26 10:43:37;;;;;;;188.73;49.43;;;4.10;99.90;;;;;;4431638;28;659581;-64
2022/11/26 10:46:32;;;;;;;179.90;50.00;;;4.20;99.90;;;;;;4431184;28;658908;-64
2022/11/26 10:49:22;;;;;;;146.33;47.80;;;4.20;99.90;;;;;;4408448;28;659025;-64
2022/11/26 10:52:12;;;;;;;171.00;47.38;;;4.30;99.90;;;;;;4404026;28;659308;-65
2022/11/26 10:55:17;;;;;;;150.33;47.43;;;4.30;99.90;;;;;;4428908;28;659020;-64
2022/11/26 10:58:06;;;;;;;137.50;42.20;;;4.20;99.90;;;;;;4395980;28;658736;-65
2022/11/26 11:01:00;;;;;;;160.77;42.70;;;4.20;99.90;;;;;;4583741;28;659448;-64
2022/11/26 11:03:48;;;;;;;165.13;48.37;;;4.20;99.90;;;;;;4674878;28;535113;-64
2022/11/26 11:06:37;;;;;;;181.13;47.30;;;4.30;99.90;;;;;;4394537;28;658805;-64
2022/11/26 11:09:29;;;;;;;168.10;49.47;;;4.30;99.90;;;;;;4413401;28;658623;-64
2022/11/26 11:12:22;;;;;;;161.87;51.17;;;4.30;99.90;;;;;;4394537;28;659086;-64
2022/11/26 11:15:18;;;;;;;244.17;52.40;;;4.30;99.90;;;;;;4390297;28;658903;-64
2022/11/26 11:18:06;;;;;;;193.90;49.70;;;4.40;99.90;;;;;;4371842;28;660279;-66
2022/11/26 11:20:54;;;;;;;317.80;56.43;;;4.40;99.90;;;;;;4417600;28;658932;-64
2022/11/26 11:23:42;;;;;;;257.53;49.20;;;4.50;99.90;;;;;;4394401;28;659329;-64
2022/11/26 11:26:37;;;;;;;330.37;54.90;;;4.50;99.90;;;;;;4413110;28;658715;-64
2022/11/26 11:29:31;;;;;;;329.00;56.23;;;4.50;99.90;;;;;;4389894;28;658455;-64
2022/11/26 11:32:33;;;;;;;528.47;59.37;;;4.50;99.90;;;;;;4390235;28;659128;-64
2022/11/26 11:35:22;;;;;;;312.23;54.07;;;4.50;99.90;;;;;;4358174;28;658982;-65
2022/11/26 11:38:20;;;;;;;444.13;54.70;;;4.50;99.90;;;;;;4409733;28;658622;-64
2022/11/26 11:41:20;;;;;;;420.13;53.53;;;4.60;99.90;;;;;;4389475;28;659388;-64
2022/11/26 11:44:12;;;;;;;721.87;63.97;;;4.70;99.90;;;;;;4366325;28;660187;-64
2022/11/26 11:47:14;;;;;;;595.53;59.33;;;4.60;99.90;;;;;;4387275;28;658423;-64
2022/11/26 11:50:18;;;;;;;558.47;58.17;;;4.70;99.90;;;;;;4366728;28;659378;-64
2022/11/26 11:53:32;;;;;;;680.37;61.43;;;4.60;99.90;;;;;;4371590;28;659266;-65
2022/11/26 11:56:24;;;;;;;633.13;59.60;;;4.60;99.90;;;;;;4382461;28;658665;-65
2022/11/26 11:59:46;;;;;;;614.60;61.00;;;4.70;99.90;;;;;;4382538;28;659177;-64
2022/11/26 12:02:55;;;;;;;321.07;53.83;;;4.70;99.90;;;;;;4407571;28;658934;-64
2022/11/26 12:06:17;;;;;;;663.53;61.97;;;4.70;99.90;;;;;;4384765;28;660484;-65
2022/11/26 12:09:11;;;;;;;547.93;53.80;;;4.70;99.90;;;;;;4332557;28;658698;-66
2022/11/26 12:11:59;;;;;;;456.10;54.30;;;4.90;99.90;;;;;;4407376;28;659586;-64
2022/11/26 12:14:49;;;;;;;420.90;53.13;;;4.80;99.90;;;;;;4411430;28;658685;-64
2022/11/26 12:17:38;;;;;;;533.23;56.97;;;4.80;99.90;;;;;;4411063;28;658717;-64
2022/11/26 12:20:28;;;;;;;243.67;47.47;;;4.90;99.90;;;;;;4411012;28;658545;-66
2022/11/26 12:23:24;;;;;;;185.90;47.33;;;4.90;99.90;;;;;;4420683;28;658626;-65
2022/11/26 12:26:12;;;;;;;182.20;48.40;;;4.80;99.90;;;;;;4384363;28;659612;-64
2022/11/26 12:29:01;;;;;;;311.05;48.95;;;4.90;99.90;;;;;;4427252;28;658871;-64
2022/11/26 12:31:49;;;;;;;244.90;48.03;;;4.80;99.90;;;;;;4407306;28;658769;-64
2022/11/26 12:34:40;;;;;;;203.50;47.97;;;4.80;99.90;;;;;;4394226;28;659657;-65
2022/11/26 12:37:30;;;;;;;181.80;46.87;;;4.90;99.90;;;;;;4404401;28;659353;-65
2022/11/26 12:40:24;;;;;;;163.60;46.50;;;4.90;99.90;;;;;;4411251;28;659675;-64
2022/11/26 12:43:13;;;;;;;246.90;48.33;;;4.90;99.90;;;;;;4366983;28;659456;-64
2022/11/26 12:46:02;;;;;;;143.73;41.67;;;4.80;99.90;;;;;;4393162;28;658641;-66
2022/11/26 12:48:51;;;;;;;129.97;41.27;;;4.90;99.90;;;;;;4416335;28;657986;-64
2022/11/26 12:51:42;;;;;;;135.90;45.77;;;4.90;99.90;;;;;;4389582;28;659555;-64
2022/11/26 12:54:32;;;;;;;158.77;46.13;;;4.90;99.90;;;;;;4389726;28;658684;-64
2022/11/26 12:57:22;;;;;;;137.07;43.37;;;4.90;99.90;;;;;;4389388;28;659461;-65
2022/11/26 13:00:11;;;;;;;137.03;40.30;;;4.90;99.90;;;;;;4389315;28;658763;-64
2022/11/26 13:02:58;;;;;;;123.77;40.13;;;4.90;99.90;;;;;;4861686;28;535999;-64
2022/11/26 13:05:48;;;;;;;130.90;36.60;;;5.00;99.90;;;;;;4393003;28;658399;-64
2022/11/26 13:08:41;;;;;;;109.53;39.53;;;4.90;99.90;;;;;;4393160;28;658589;-65
2022/11/26 13:11:35;;;;;;;129.77;44.93;;;4.90;99.90;;;;;;4389254;28;660035;-64
2022/11/26 13:14:26;;;;;;;108.77;38.87;;;4.90;99.90;;;;;;4366106;28;659207;-64
2022/11/26 13:17:13;;;;;;;96.07;36.87;;;4.90;99.90;;;;;;4389091;28;659825;-64
2022/11/26 13:20:04;;;;;;;101.63;36.63;;;5.00;99.90;;;;;;4396934;28;657825;-64
2022/11/26 13:22:58;;;;;;;89.47;35.67;;;5.00;99.90;;;;;;4391066;28;660010;-64
2022/11/26 13:25:55;;;;;;;103.10;35.80;;;5.00;99.90;;;;;;4379646;28;657352;-66
2022/11/26 13:28:55;;;;;;;113.20;36.07;;;5.00;99.90;;;;;;4369237;28;659460;-64
2022/11/26 13:31:53;;;;;;;110.83;37.37;;;5.00;99.90;;;;;;4369362;28;659565;-64
2022/11/26 13:34:51;;;;;;;124.85;38.55;;;5.00;99.90;;;;;;4396128;28;658593;-66
2022/11/26 13:37:47;;;;;;;110.50;36.47;;;4.90;99.90;;;;;;4392176;28;659280;-64
2022/11/26 13:40:58;;;;;;;127.07;37.90;;;5.00;99.90;;;;;;4391825;28;658657;-64
2022/11/26 13:44:08;;;;;;;120.80;36.23;;;4.90;99.90;;;;;;4354542;28;659455;-64
2022/11/26 13:46:55;;;;;;;137.50;39.27;;;4.90;99.90;;;;;;4356113;28;658677;-65
2022/11/26 13:49:44;;;;;;;143.63;37.63;;;4.90;99.90;;;;;;4397170;28;659451;-64
2022/11/26 13:52:35;;;;;;;149.63;39.17;;;4.90;99.90;;;;;;4379075;28;659574;-64
2022/11/26 13:55:24;;;;;;;141.23;38.87;;;4.90;99.90;;;;;;4374742;28;660037;-64
2022/11/26 13:58:15;;;;;;;129.40;38.07;;;4.90;99.90;;;;;;4386314;28;659364;-64
2022/11/26 14:01:27;;;;;;;131.37;38.47;;;4.90;99.90;;;;;;4391824;28;660411;-64
2022/11/26 14:04:15;;;;;;;129.97;38.53;;;5.00;99.90;;;;;;4391789;28;658734;-64
2022/11/26 14:07:18;;;;;;;131.63;38.50;;;4.90;99.90;;;;;;4391829;28;659821;-64
2022/11/26 14:10:06;;;;;;;132.37;37.73;;;4.90;99.90;;;;;;4374216;28;659023;-66